createdAt,value
2024-02-19T00:04:36.124Z,14.58
2024-02-19T00:10:20.441Z,14.55
2024-02-19T00:16:04.870Z,14.51
2024-02-19T00:21:48.780Z,14.48
2024-02-19T00:27:32.728Z,14.45
2024-02-19T00:33:17.704Z,14.43
2024-02-19T00:39:01.520Z,14.42
2024-02-19T00:44:48.287Z,14.42
2024-02-19T00:50:32.046Z,14.41
2024-02-19T00:56:15.762Z,14.41
2024-02-19T01:01:59.813Z,14.41
2024-02-19T01:07:43.748Z,14.4
2024-02-19T01:13:27.440Z,14.42
2024-02-19T01:19:11.401Z,14.42
2024-02-19T01:24:55.690Z,14.5
2024-02-19T01:30:39.421Z,14.45
2024-02-19T01:36:23.326Z,14.41
2024-02-19T01:42:06.954Z,14.39
2024-02-19T01:47:51.847Z,14.43
2024-02-19T01:53:35.868Z,14.4
2024-02-19T01:59:21.685Z,14.39
2024-02-19T02:05:06.398Z,14.38
2024-02-19T02:10:50.169Z,14.37
2024-02-19T02:16:34.280Z,14.39
2024-02-19T02:22:17.958Z,14.39
2024-02-19T02:28:02.016Z,14.37
2024-02-19T02:33:46.102Z,14.35
2024-02-19T02:39:31.537Z,14.35
2024-02-19T02:45:15.799Z,14.32
2024-02-19T02:50:59.465Z,14.31
2024-02-19T02:56:43.392Z,14.3
2024-02-19T03:02:28.142Z,14.29
2024-02-19T03:08:12.862Z,14.34
2024-02-19T03:13:56.555Z,14.28
2024-02-19T03:19:40.299Z,14.28
2024-02-19T03:25:24.331Z,14.26
2024-02-19T03:31:08.469Z,14.23
2024-02-19T03:36:53.264Z,14.22
2024-02-19T03:42:37.226Z,14.23
2024-02-19T03:48:21.405Z,14.18
2024-02-19T03:54:05.318Z,14.16
2024-02-19T03:59:49.696Z,14.16
2024-02-19T04:05:33.600Z,14.12
2024-02-19T04:11:18.620Z,14.2
2024-02-19T04:17:04.172Z,14.21
2024-02-19T04:22:50.797Z,14.21
2024-02-19T04:28:34.332Z,14.19
2024-02-19T04:34:18.437Z,14.2
2024-02-19T04:40:02.588Z,14.25
2024-02-19T04:45:46.936Z,14.22
2024-02-19T04:51:30.682Z,14.23
2024-02-19T04:57:14.212Z,14.22
2024-02-19T05:02:57.878Z,14.23
2024-02-19T05:08:41.545Z,14.27
2024-02-19T05:14:26.212Z,14.24
2024-02-19T05:20:10.866Z,14.26
2024-02-19T05:25:54.614Z,14.32
2024-02-19T05:31:38.805Z,14.31
2024-02-19T05:37:22.632Z,14.26
2024-02-19T05:43:07.053Z,14.27
2024-02-19T05:48:51.446Z,14.26
2024-02-19T05:54:35.866Z,14.26
2024-02-19T06:00:20.277Z,14.29
2024-02-19T06:06:04.106Z,14.27
2024-02-19T06:11:48.167Z,14.33
2024-02-19T06:17:32.121Z,14.33
2024-02-19T06:23:16.449Z,14.33
2024-02-19T06:29:00.236Z,14.34
2024-02-19T06:34:44.832Z,14.39
2024-02-19T06:40:29.961Z,14.38
2024-02-19T06:46:16.136Z,14.4
2024-02-19T06:52:00.536Z,14.42
2024-02-19T06:57:44.853Z,14.38
2024-02-19T07:03:28.891Z,14.4
2024-02-19T07:09:12.889Z,14.37
2024-02-19T07:14:57.041Z,14.42
2024-02-19T07:20:41.347Z,14.45
2024-02-19T07:26:25.091Z,14.47
2024-02-19T07:32:09.443Z,14.53
2024-02-19T07:37:55.243Z,14.57
2024-02-19T07:43:40.424Z,14.59
2024-02-19T07:49:24.071Z,14.64
2024-02-19T07:55:10.807Z,14.73
2024-02-19T08:00:54.824Z,14.75
2024-02-19T08:06:40.613Z,14.8
2024-02-19T08:12:25.312Z,14.85
2024-02-19T08:18:10.119Z,14.91
2024-02-19T08:23:55.302Z,14.99
2024-02-19T08:29:40.235Z,15.09
2024-02-19T08:35:24.028Z,15.18
2024-02-19T08:41:08.505Z,15.37
2024-02-19T08:46:52.108Z,15.47
2024-02-19T08:52:35.869Z,15.7
2024-02-19T08:58:19.698Z,15.77
2024-02-19T09:04:04.046Z,15.76
2024-02-19T09:09:47.962Z,15.8
2024-02-19T09:15:32.118Z,15.83
2024-02-19T09:21:16.082Z,15.96
2024-02-19T09:27:02.420Z,16.08
2024-02-19T09:32:48.446Z,16.15
2024-02-19T09:38:32.350Z,16.27
2024-02-19T09:44:16.319Z,16.28
2024-02-19T09:50:01.793Z,16.32
2024-02-19T09:55:46.523Z,16.38
2024-02-19T10:01:30.326Z,16.38
2024-02-19T10:07:16.361Z,16.35
2024-02-19T10:13:01.128Z,16.37
2024-02-19T10:18:46.211Z,16.41
2024-02-19T10:24:30.770Z,16.3
2024-02-19T10:30:15.683Z,16.15
2024-02-19T10:35:59.401Z,16.09
2024-02-19T10:41:43.524Z,16.1
2024-02-19T10:47:28.402Z,16.04
2024-02-19T10:53:12.226Z,16.22
2024-02-19T10:58:59.483Z,16.22
2024-02-19T11:04:49.199Z,16.19
2024-02-19T11:10:42.973Z,16.28
2024-02-19T11:16:27.566Z,16.16
2024-02-19T11:22:12.157Z,16.19
2024-02-19T11:27:56.640Z,16.11
2024-02-19T11:33:40.797Z,16.03
2024-02-19T11:39:24.650Z,16.04
2024-02-19T11:45:09.549Z,16.22
2024-02-19T11:50:53.935Z,16.34
2024-02-19T11:56:45.327Z,16.36
2024-02-19T12:02:29.107Z,16.43
2024-02-19T12:08:13.957Z,16.33
2024-02-19T12:13:57.934Z,16.27
2024-02-19T12:19:41.444Z,16.3
2024-02-19T12:25:26.114Z,16.22
2024-02-19T12:31:10.048Z,16.24
2024-02-19T12:36:54.075Z,16.24
2024-02-19T12:42:38.165Z,16.17
2024-02-19T12:48:21.988Z,16.16
2024-02-19T12:54:06.282Z,16.29
2024-02-19T12:59:51.125Z,16.33
2024-02-19T13:05:34.978Z,16.48
2024-02-19T13:11:18.933Z,16.57
2024-02-19T13:17:06.289Z,16.61
2024-02-19T13:23:05.126Z,16.53
2024-02-19T13:28:48.919Z,16.42
2024-02-19T13:34:33.240Z,16.32
2024-02-19T13:40:19.907Z,16.52
2024-02-19T13:46:05.638Z,16.6
2024-02-19T13:51:50.751Z,16.75
2024-02-19T13:57:34.744Z,16.82
2024-02-19T14:03:18.496Z,16.77
2024-02-19T14:09:02.696Z,16.93
2024-02-19T14:14:46.387Z,16.94
2024-02-19T14:20:31.279Z,17.1
2024-02-19T14:26:18.456Z,17.14
2024-02-19T14:32:03.039Z,16.99
2024-02-19T14:37:46.898Z,16.82
2024-02-19T14:43:30.595Z,16.65
2024-02-19T14:49:14.853Z,16.52
2024-02-19T14:54:59.214Z,16.48
2024-02-19T15:00:43.071Z,16.45
2024-02-19T15:06:27.265Z,16.48
2024-02-19T15:12:11.784Z,16.61
2024-02-19T15:17:58.049Z,16.49
2024-02-19T15:23:43.106Z,16.53
2024-02-19T15:29:28.905Z,16.4
2024-02-19T15:35:12.793Z,16.47
2024-02-19T15:40:57.304Z,16.4
2024-02-19T15:46:41.136Z,16.3
2024-02-19T15:52:26.333Z,16.23
2024-02-19T15:58:11.526Z,16.17
2024-02-19T16:03:55.553Z,16.09
2024-02-19T16:09:39.706Z,15.99
2024-02-19T16:15:23.344Z,15.9
2024-02-19T16:21:06.996Z,15.83
2024-02-19T16:26:50.640Z,15.91
2024-02-19T16:32:36.598Z,15.77
2024-02-19T16:38:20.744Z,15.65
2024-02-19T16:44:04.494Z,15.55
2024-02-19T16:49:48.343Z,15.52
2024-02-19T16:55:32.422Z,15.41
2024-02-19T17:01:16.664Z,15.34
2024-02-19T17:07:02.590Z,15.29
2024-02-19T17:12:52.034Z,15.27
2024-02-19T17:18:36.112Z,15.15
2024-02-19T17:24:21.338Z,15.06
2024-02-19T17:30:05.846Z,15.04
2024-02-19T17:35:49.551Z,14.96
2024-02-19T17:41:33.495Z,15.05
2024-02-19T17:47:17.218Z,15.02
2024-02-19T17:53:02.205Z,14.94
2024-02-19T17:58:45.772Z,14.85
2024-02-19T18:04:29.444Z,14.8
2024-02-19T18:10:13.775Z,14.79
2024-02-19T18:15:57.780Z,14.73
2024-02-19T18:21:44.617Z,14.69
2024-02-19T18:27:28.614Z,14.65
2024-02-19T18:33:12.294Z,14.63
2024-02-19T18:38:56.175Z,14.59
2024-02-19T18:44:39.780Z,14.53
2024-02-19T18:50:23.277Z,14.51
2024-02-19T18:56:07.262Z,14.5
2024-02-19T19:01:50.999Z,14.62
2024-02-19T19:07:35.202Z,14.49
2024-02-19T19:13:20.459Z,14.41
2024-02-19T19:19:04.718Z,14.37
2024-02-19T19:24:48.923Z,14.33
2024-02-19T19:30:32.858Z,14.31
2024-02-19T19:36:16.562Z,14.27
2024-02-19T19:42:03.465Z,14.32
2024-02-19T19:47:47.212Z,14.29
2024-02-19T19:53:32.041Z,14.25
2024-02-19T19:59:15.690Z,14.27
2024-02-19T20:05:00.022Z,14.23
2024-02-19T20:10:44.203Z,14.25
2024-02-19T20:16:28.668Z,14.18
2024-02-19T20:22:13.014Z,14.25
2024-02-19T20:27:56.955Z,14.16
2024-02-19T20:33:40.745Z,14.11
2024-02-19T20:39:24.854Z,14.06
2024-02-19T20:45:11.628Z,13.99
2024-02-19T20:50:56.739Z,13.92
2024-02-19T20:56:41.087Z,13.93
2024-02-19T21:02:24.913Z,13.86
2024-02-19T21:08:11.049Z,13.81
2024-02-19T21:13:55.143Z,13.81
2024-02-19T21:19:39.044Z,13.77
2024-02-19T21:25:23.158Z,13.74
2024-02-19T21:31:07.143Z,13.7
2024-02-19T21:36:51.162Z,13.68
2024-02-19T21:42:38.127Z,13.68
2024-02-19T21:48:22.122Z,13.7
2024-02-19T21:54:06.530Z,13.71
2024-02-19T21:59:50.346Z,13.69
2024-02-19T22:05:34.154Z,13.67
2024-02-19T22:11:18.338Z,13.68
2024-02-19T22:17:02.693Z,13.66
2024-02-19T22:22:46.579Z,13.59
2024-02-19T22:28:30.407Z,13.62
2024-02-19T22:34:14.915Z,13.55
2024-02-19T22:39:58.943Z,13.52
2024-02-19T22:45:43.099Z,13.53
2024-02-19T22:51:27.021Z,13.54
2024-02-19T22:57:10.712Z,13.51
2024-02-19T23:02:55.560Z,13.46
2024-02-19T23:08:39.601Z,13.41
2024-02-19T23:14:23.288Z,13.38
2024-02-19T23:20:07.772Z,13.39
2024-02-19T23:25:53.012Z,13.37
2024-02-19T23:31:37.389Z,13.29
2024-02-19T23:37:21.665Z,13.23
2024-02-19T23:43:05.784Z,13.22
2024-02-19T23:48:49.995Z,13.29
2024-02-19T23:54:34.264Z,13.17
